sensor_id;sensor_type;location;lat;lon;timestamp;pressure;altitude;pressure_sealevel;temperature;humidity
12209;BME280;6167;43.080;25.634;2022-12-18T00:01:57;100471.22;;;10.05;100.00
12209;BME280;6167;43.080;25.634;2022-12-18T00:04:26;100479.81;;;10.13;100.00
12209;BME280;6167;43.080;25.634;2022-12-18T00:06:53;100459.41;;;10.18;100.00
12209;BME280;6167;43.080;25.634;2022-12-18T00:09:22;100493.00;;;10.15;100.00
12209;BME280;6167;43.080;25.634;2022-12-18T00:11:49;100492.88;;;9.87;100.00
12209;BME280;6167;43.080;25.634;2022-12-18T00:14:16;100504.28;;;9.89;100.00
12209;BME280;6167;43.080;25.634;2022-12-18T00:16:44;100508.06;;;10.11;100.00
12209;BME280;6167;43.080;25.634;2022-12-18T00:19:12;100501.63;;;10.21;100.00
12209;BME280;6167;43.080;25.634;2022-12-18T00:21:40;100500.88;;;10.16;100.00
12209;BME280;6167;43.080;25.634;2022-12-18T00:24:08;100489.13;;;9.95;100.00
12209;BME280;6167;43.080;25.634;2022-12-18T00:26:38;100506.91;;;10.21;100.00
12209;BME280;6167;43.080;25.634;2022-12-18T00:29:07;100505.22;;;10.19;100.00
12209;BME280;6167;43.080;25.634;2022-12-18T00:31:35;100510.03;;;10.03;100.00
12209;BME280;6167;43.080;25.634;2022-12-18T00:34:03;100523.25;;;10.03;100.00
12209;BME280;6167;43.080;25.634;2022-12-18T00:36:32;100513.69;;;10.31;100.00
12209;BME280;6167;43.080;25.634;2022-12-18T00:39:01;100494.97;;;10.07;100.00
12209;BME280;6167;43.080;25.634;2022-12-18T00:41:28;100524.75;;;10.13;100.00
12209;BME280;6167;43.080;25.634;2022-12-18T00:44:16;100525.22;;;9.96;100.00
12209;BME280;6167;43.080;25.634;2022-12-18T00:46:45;100529.69;;;10.25;100.00
12209;BME280;6167;43.080;25.634;2022-12-18T00:49:13;100511.72;;;10.06;100.00
12209;BME280;6167;43.080;25.634;2022-12-18T00:51:40;100513.06;;;9.89;100.00
12209;BME280;6167;43.080;25.634;2022-12-18T00:54:07;100517.53;;;9.87;100.00
12209;BME280;6167;43.080;25.634;2022-12-18T00:56:36;100517.06;;;10.04;100.00
12209;BME280;6167;43.080;25.634;2022-12-18T00:59:04;100511.03;;;9.99;100.00
12209;BME280;6167;43.080;25.634;2022-12-18T01:01:33;100514.13;;;9.82;100.00
12209;BME280;6167;43.080;25.634;2022-12-18T01:04:01;100541.53;;;10.11;100.00
12209;BME280;6167;43.080;25.634;2022-12-18T01:06:28;100517.59;;;10.17;100.00
12209;BME280;6167;43.080;25.634;2022-12-18T01:08:56;100542.09;;;10.23;100.00
12209;BME280;6167;43.080;25.634;2022-12-18T01:11:24;100507.00;;;9.86;100.00
12209;BME280;6167;43.080;25.634;2022-12-18T01:13:54;100538.97;;;10.08;100.00
12209;BME280;6167;43.080;25.634;2022-12-18T01:16:22;100545.59;;;10.24;100.00
12209;BME280;6167;43.080;25.634;2022-12-18T01:18:53;100548.28;;;10.22;100.00
12209;BME280;6167;43.080;25.634;2022-12-18T01:21:22;100553.22;;;10.02;100.00
12209;BME280;6167;43.080;25.634;2022-12-18T01:23:53;100546.13;;;10.04;100.00
12209;BME280;6167;43.080;25.634;2022-12-18T01:26:20;100529.38;;;10.05;100.00
12209;BME280;6167;43.080;25.634;2022-12-18T01:28:48;100566.03;;;10.17;100.00
12209;BME280;6167;43.080;25.634;2022-12-18T01:31:18;100530.88;;;9.81;100.00
12209;BME280;6167;43.080;25.634;2022-12-18T01:33:46;100571.53;;;10.10;100.00
12209;BME280;6167;43.080;25.634;2022-12-18T01:36:20;100573.97;;;10.17;100.00
12209;BME280;6167;43.080;25.634;2022-12-18T01:39:03;100534.03;;;9.95;100.00
12209;BME280;6167;43.080;25.634;2022-12-18T01:41:31;100562.34;;;9.90;100.00
12209;BME280;6167;43.080;25.634;2022-12-18T01:47:20;100574.34;;;10.02;100.00
12209;BME280;6167;43.080;25.634;2022-12-18T01:49:50;100540.81;;;9.73;100.00
12209;BME280;6167;43.080;25.634;2022-12-18T01:52:20;100564.53;;;9.75;100.00
12209;BME280;6167;43.080;25.634;2022-12-18T01:54:48;100569.44;;;9.88;100.00
12209;BME280;6167;43.080;25.634;2022-12-18T01:57:17;100565.97;;;9.86;100.00
12209;BME280;6167;43.080;25.634;2022-12-18T01:59:52;100587.94;;;9.88;100.00
12209;BME280;6167;43.080;25.634;2022-12-18T02:02:20;100579.72;;;9.65;100.00
12209;BME280;6167;43.080;25.634;2022-12-18T02:04:47;100587.84;;;9.93;100.00
12209;BME280;6167;43.080;25.634;2022-12-18T02:07:19;100577.94;;;9.99;100.00
12209;BME280;6167;43.080;25.634;2022-12-18T02:09:57;100585.31;;;9.88;100.00
12209;BME280;6167;43.080;25.634;2022-12-18T02:12:30;100583.28;;;9.64;100.00
12209;BME280;6167;43.080;25.634;2022-12-18T02:15:06;100588.03;;;9.85;100.00
12209;BME280;6167;43.080;25.634;2022-12-18T02:17:37;100557.44;;;9.77;100.00
12209;BME280;6167;43.080;25.634;2022-12-18T02:20:12;100592.63;;;9.77;100.00
12209;BME280;6167;43.080;25.634;2022-12-18T02:22:45;100593.47;;;9.78;100.00
12209;BME280;6167;43.080;25.634;2022-12-18T02:25:29;100595.09;;;9.83;100.00
12209;BME280;6167;43.080;25.634;2022-12-18T02:28:04;100587.22;;;9.82;100.00
12209;BME280;6167;43.080;25.634;2022-12-18T02:30:38;100600.41;;;9.48;100.00
12209;BME280;6167;43.080;25.634;2022-12-18T02:33:07;100598.28;;;9.26;100.00
12209;BME280;6167;43.080;25.634;2022-12-18T02:35:36;100610.59;;;9.63;100.00
12209;BME280;6167;43.080;25.634;2022-12-18T02:38:05;100603.16;;;9.43;100.00
12209;BME280;6167;43.080;25.634;2022-12-18T02:40:32;100605.75;;;9.08;100.00
12209;BME280;6167;43.080;25.634;2022-12-18T02:43:07;100614.03;;;8.91;100.00
12209;BME280;6167;43.080;25.634;2022-12-18T02:45:34;100612.13;;;8.98;100.00
12209;BME280;6167;43.080;25.634;2022-12-18T02:48:00;100616.13;;;8.74;100.00
12209;BME280;6167;43.080;25.634;2022-12-18T02:50:34;100619.84;;;8.65;100.00
12209;BME280;6167;43.080;25.634;2022-12-18T02:53:09;100626.34;;;8.49;100.00
12209;BME280;6167;43.080;25.634;2022-12-18T02:55:47;100621.03;;;8.50;100.00
12209;BME280;6167;43.080;25.634;2022-12-18T02:58:20;100630.59;;;8.54;100.00
12209;BME280;6167;43.080;25.634;2022-12-18T03:00:58;100630.22;;;8.28;100.00
12209;BME280;6167;43.080;25.634;2022-12-18T03:03:31;100612.94;;;8.12;100.00
12209;BME280;6167;43.080;25.634;2022-12-18T03:06:05;100644.47;;;8.16;100.00
12209;BME280;6167;43.080;25.634;2022-12-18T03:08:38;100651.06;;;8.42;100.00
12209;BME280;6167;43.080;25.634;2022-12-18T03:11:08;100664.22;;;8.43;100.00
12209;BME280;6167;43.080;25.634;2022-12-18T03:13:41;100669.81;;;8.23;100.00
12209;BME280;6167;43.080;25.634;2022-12-18T03:16:14;100676.09;;;8.16;100.00
12209;BME280;6167;43.080;25.634;2022-12-18T03:18:45;100678.72;;;8.16;100.00
12209;BME280;6167;43.080;25.634;2022-12-18T03:21:13;100683.88;;;8.24;100.00
12209;BME280;6167;43.080;25.634;2022-12-18T03:23:46;100688.31;;;8.20;100.00
12209;BME280;6167;43.080;25.634;2022-12-18T03:26:16;100691.19;;;8.07;100.00
12209;BME280;6167;43.080;25.634;2022-12-18T03:28:51;100703.91;;;7.82;100.00
12209;BME280;6167;43.080;25.634;2022-12-18T03:31:22;100702.75;;;7.98;100.00
12209;BME280;6167;43.080;25.634;2022-12-18T03:33:52;100706.09;;;8.09;100.00
12209;BME280;6167;43.080;25.634;2022-12-18T03:36:20;100706.09;;;8.09;100.00
12209;BME280;6167;43.080;25.634;2022-12-18T03:38:47;100705.69;;;7.78;100.00
12209;BME280;6167;43.080;25.634;2022-12-18T03:41:19;100713.31;;;7.97;100.00
12209;BME280;6167;43.080;25.634;2022-12-18T03:43:55;100718.28;;;8.13;100.00
12209;BME280;6167;43.080;25.634;2022-12-18T03:46:29;100710.38;;;8.13;100.00
12209;BME280;6167;43.080;25.634;2022-12-18T03:49:01;100715.31;;;7.81;100.00
12209;BME280;6167;43.080;25.634;2022-12-18T03:51:35;100725.59;;;7.96;100.00
12209;BME280;6167;43.080;25.634;2022-12-18T03:54:07;100726.63;;;7.87;100.00
12209;BME280;6167;43.080;25.634;2022-12-18T03:56:37;100727.56;;;7.85;100.00
12209;BME280;6167;43.080;25.634;2022-12-18T03:59:09;100737.34;;;7.75;100.00
12209;BME280;6167;43.080;25.634;2022-12-18T04:01:39;100734.75;;;7.72;100.00
12209;BME280;6167;43.080;25.634;2022-12-18T04:04:10;100740.50;;;7.97;100.00
12209;BME280;6167;43.080;25.634;2022-12-18T04:06:40;100743.06;;;8.03;100.00
12209;BME280;6167;43.080;25.634;2022-12-18T04:09:09;100751.28;;;7.83;100.00
12209;BME280;6167;43.080;25.634;2022-12-18T04:11:36;100762.78;;;7.76;100.00
12209;BME280;6167;43.080;25.634;2022-12-18T04:14:04;100761.91;;;7.76;100.00
12209;BME280;6167;43.080;25.634;2022-12-18T04:16:32;100775.78;;;7.88;100.00
12209;BME280;6167;43.080;25.634;2022-12-18T04:18:59;100769.38;;;8.05;100.00
12209;BME280;6167;43.080;25.634;2022-12-18T04:21:26;100780.34;;;7.74;100.00
12209;BME280;6167;43.080;25.634;2022-12-18T04:23:53;100776.13;;;7.64;100.00
12209;BME280;6167;43.080;25.634;2022-12-18T04:26:19;100776.75;;;7.81;100.00
12209;BME280;6167;43.080;25.634;2022-12-18T04:28:46;100777.34;;;8.00;100.00
12209;BME280;6167;43.080;25.634;2022-12-18T04:31:13;100780.94;;;7.93;100.00
12209;BME280;6167;43.080;25.634;2022-12-18T04:33:41;100784.56;;;7.87;100.00
12209;BME280;6167;43.080;25.634;2022-12-18T04:36:08;100792.66;;;7.74;100.00
12209;BME280;6167;43.080;25.634;2022-12-18T04:38:37;100791.59;;;7.87;100.00
12209;BME280;6167;43.080;25.634;2022-12-18T04:41:04;100802.06;;;7.90;100.00
12209;BME280;6167;43.080;25.634;2022-12-18T04:43:31;100804.84;;;7.81;100.00
12209;BME280;6167;43.080;25.634;2022-12-18T04:46:02;100807.44;;;7.84;100.00
12209;BME280;6167;43.080;25.634;2022-12-18T04:48:29;100815.91;;;9.10;100.00
12209;BME280;6167;43.080;25.634;2022-12-18T04:50:57;100817.41;;;8.76;100.00
12209;BME280;6167;43.080;25.634;2022-12-18T04:53:24;100816.44;;;8.81;100.00
12209;BME280;6167;43.080;25.634;2022-12-18T04:56:01;100819.16;;;8.75;100.00
12209;BME280;6167;43.080;25.634;2022-12-18T04:58:28;100816.44;;;8.27;100.00
12209;BME280;6167;43.080;25.634;2022-12-18T05:00:55;100824.03;;;8.49;100.00
12209;BME280;6167;43.080;25.634;2022-12-18T05:03:22;100835.31;;;8.55;100.00
12209;BME280;6167;43.080;25.634;2022-12-18T05:05:49;100840.66;;;8.52;100.00
12209;BME280;6167;43.080;25.634;2022-12-18T05:08:18;100846.19;;;8.36;100.00
12209;BME280;6167;43.080;25.634;2022-12-18T05:10:45;100848.59;;;8.51;100.00
12209;BME280;6167;43.080;25.634;2022-12-18T05:13:11;100857.13;;;8.67;100.00
12209;BME280;6167;43.080;25.634;2022-12-18T05:15:39;100859.50;;;8.25;100.00
12209;BME280;6167;43.080;25.634;2022-12-18T05:18:07;100852.75;;;8.07;100.00
12209;BME280;6167;43.080;25.634;2022-12-18T05:20:34;100869.19;;;8.24;100.00
12209;BME280;6167;43.080;25.634;2022-12-18T05:23:01;100870.88;;;8.28;100.00
12209;BME280;6167;43.080;25.634;2022-12-18T05:25:29;100862.28;;;8.14;100.00
12209;BME280;6167;43.080;25.634;2022-12-18T05:27:56;100870.13;;;8.19;100.00
12209;BME280;6167;43.080;25.634;2022-12-18T05:30:23;100879.59;;;8.35;100.00
12209;BME280;6167;43.080;25.634;2022-12-18T05:32:50;100875.50;;;8.11;100.00
12209;BME280;6167;43.080;25.634;2022-12-18T05:35:17;100882.47;;;8.17;100.00
12209;BME280;6167;43.080;25.634;2022-12-18T05:37:44;100884.16;;;8.22;100.00
12209;BME280;6167;43.080;25.634;2022-12-18T05:40:11;100891.91;;;8.32;100.00
12209;BME280;6167;43.080;25.634;2022-12-18T05:42:40;100898.25;;;8.17;100.00
12209;BME280;6167;43.080;25.634;2022-12-18T05:45:07;100890.69;;;7.92;100.00
12209;BME280;6167;43.080;25.634;2022-12-18T05:47:34;100906.13;;;8.21;100.00
12209;BME280;6167;43.080;25.634;2022-12-18T05:50:01;100903.44;;;8.24;100.00
12209;BME280;6167;43.080;25.634;2022-12-18T05:52:28;100899.22;;;8.11;100.00
12209;BME280;6167;43.080;25.634;2022-12-18T05:54:55;100913.53;;;7.90;100.00
12209;BME280;6167;43.080;25.634;2022-12-18T05:57:21;100917.72;;;8.10;100.00
12209;BME280;6167;43.080;25.634;2022-12-18T05:59:49;100922.91;;;8.13;100.00
12209;BME280;6167;43.080;25.634;2022-12-18T06:02:16;100932.16;;;7.77;100.00
12209;BME280;6167;43.080;25.634;2022-12-18T06:04:43;100933.09;;;7.70;100.00
12209;BME280;6167;43.080;25.634;2022-12-18T06:07:10;100922.38;;;7.88;100.00
12209;BME280;6167;43.080;25.634;2022-12-18T06:09:37;100920.56;;;7.90;100.00
12209;BME280;6167;43.080;25.634;2022-12-18T06:12:05;100924.91;;;7.96;100.00
12209;BME280;6167;43.080;25.634;2022-12-18T06:14:32;100943.19;;;8.09;100.00
12209;BME280;6167;43.080;25.634;2022-12-18T06:17:00;100945.69;;;8.18;100.00
12209;BME280;6167;43.080;25.634;2022-12-18T06:19:27;100956.13;;;8.24;100.00
12209;BME280;6167;43.080;25.634;2022-12-18T06:21:54;100957.25;;;8.07;100.00
12209;BME280;6167;43.080;25.634;2022-12-18T06:24:23;100961.88;;;7.89;100.00
12209;BME280;6167;43.080;25.634;2022-12-18T06:26:50;100966.28;;;7.86;100.00
12209;BME280;6167;43.080;25.634;2022-12-18T06:29:17;100979.28;;;8.00;100.00
12209;BME280;6167;43.080;25.634;2022-12-18T06:31:46;100974.91;;;7.99;100.00
12209;BME280;6167;43.080;25.634;2022-12-18T06:34:15;100994.31;;;7.90;100.00
12209;BME280;6167;43.080;25.634;2022-12-18T06:36:42;100995.38;;;7.75;100.00
12209;BME280;6167;43.080;25.634;2022-12-18T06:39:08;100997.53;;;8.15;100.00
12209;BME280;6167;43.080;25.634;2022-12-18T06:41:36;101002.09;;;8.02;100.00
12209;BME280;6167;43.080;25.634;2022-12-18T06:44:03;101010.88;;;8.01;100.00
12209;BME280;6167;43.080;25.634;2022-12-18T06:46:31;101005.47;;;8.12;100.00
12209;BME280;6167;43.080;25.634;2022-12-18T06:48:58;101016.09;;;8.07;100.00
12209;BME280;6167;43.080;25.634;2022-12-18T06:51:26;101010.84;;;8.06;100.00
12209;BME280;6167;43.080;25.634;2022-12-18T06:53:53;101017.06;;;7.97;100.00
12209;BME280;6167;43.080;25.634;2022-12-18T06:56:20;101015.28;;;7.99;100.00
12209;BME280;6167;43.080;25.634;2022-12-18T06:58:50;101014.22;;;8.14;100.00
12209;BME280;6167;43.080;25.634;2022-12-18T07:01:17;101018.59;;;8.16;100.00
12209;BME280;6167;43.080;25.634;2022-12-18T07:03:44;101007.09;;;8.25;100.00
12209;BME280;6167;43.080;25.634;2022-12-18T07:06:15;101012.31;;;8.30;100.00
12209;BME280;6167;43.080;25.634;2022-12-18T07:08:44;101006.16;;;8.29;100.00
12209;BME280;6167;43.080;25.634;2022-12-18T07:11:12;101023.09;;;8.08;100.00
12209;BME280;6167;43.080;25.634;2022-12-18T07:13:38;101029.13;;;8.18;100.00
12209;BME280;6167;43.080;25.634;2022-12-18T07:16:07;101035.41;;;9.34;100.00
12209;BME280;6167;43.080;25.634;2022-12-18T07:18:34;101040.78;;;8.69;100.00
12209;BME280;6167;43.080;25.634;2022-12-18T07:21:05;101039.53;;;8.28;100.00
12209;BME280;6167;43.080;25.634;2022-12-18T07:23:32;101046.59;;;8.25;100.00
12209;BME280;6167;43.080;25.634;2022-12-18T07:26:02;101040.41;;;8.31;100.00
12209;BME280;6167;43.080;25.634;2022-12-18T07:28:30;101038.69;;;8.26;100.00
12209;BME280;6167;43.080;25.634;2022-12-18T07:30:57;101057.13;;;8.26;100.00
12209;BME280;6167;43.080;25.634;2022-12-18T07:33:24;101045.50;;;8.46;100.00
12209;BME280;6167;43.080;25.634;2022-12-18T07:35:51;101052.72;;;8.30;100.00
12209;BME280;6167;43.080;25.634;2022-12-18T07:38:18;101059.31;;;8.63;100.00
12209;BME280;6167;43.080;25.634;2022-12-18T07:40:45;101058.28;;;8.73;100.00
12209;BME280;6167;43.080;25.634;2022-12-18T07:43:13;101061.06;;;8.64;100.00
12209;BME280;6167;43.080;25.634;2022-12-18T07:45:41;101065.66;;;8.50;100.00
12209;BME280;6167;43.080;25.634;2022-12-18T07:48:08;101063.97;;;8.44;100.00
12209;BME280;6167;43.080;25.634;2022-12-18T07:50:36;101068.63;;;8.19;100.00
12209;BME280;6167;43.080;25.634;2022-12-18T07:53:03;101060.06;;;8.01;100.00
12209;BME280;6167;43.080;25.634;2022-12-18T07:55:30;101062.59;;;8.10;100.00
12209;BME280;6167;43.080;25.634;2022-12-18T07:58:00;101065.91;;;8.27;100.00
12209;BME280;6167;43.080;25.634;2022-12-18T08:00:29;101069.41;;;8.27;100.00
12209;BME280;6167;43.080;25.634;2022-12-18T08:02:56;101074.00;;;8.10;100.00
12209;BME280;6167;43.080;25.634;2022-12-18T08:05:23;101075.81;;;8.05;100.00
12209;BME280;6167;43.080;25.634;2022-12-18T08:07:50;101072.69;;;8.51;100.00
12209;BME280;6167;43.080;25.634;2022-12-18T08:10:18;101077.59;;;8.77;100.00
12209;BME280;6167;43.080;25.634;2022-12-18T08:12:45;101086.47;;;8.71;100.00
12209;BME280;6167;43.080;25.634;2022-12-18T08:15:12;101076.72;;;8.75;100.00
12209;BME280;6167;43.080;25.634;2022-12-18T08:17:40;101072.00;;;9.00;100.00
12209;BME280;6167;43.080;25.634;2022-12-18T08:20:08;101068.53;;;8.94;100.00
12209;BME280;6167;43.080;25.634;2022-12-18T08:22:35;101072.47;;;8.68;100.00
12209;BME280;6167;43.080;25.634;2022-12-18T08:25:03;101071.69;;;8.58;100.00
12209;BME280;6167;43.080;25.634;2022-12-18T08:27:30;101078.75;;;8.56;100.00
12209;BME280;6167;43.080;25.634;2022-12-18T08:29:58;101076.91;;;8.63;100.00
12209;BME280;6167;43.080;25.634;2022-12-18T08:32:25;101078.16;;;8.33;100.00
12209;BME280;6167;43.080;25.634;2022-12-18T08:34:53;101078.09;;;8.39;100.00
12209;BME280;6167;43.080;25.634;2022-12-18T08:37:20;101091.00;;;8.60;100.00
12209;BME280;6167;43.080;25.634;2022-12-18T08:39:47;101084.78;;;8.67;100.00
12209;BME280;6167;43.080;25.634;2022-12-18T08:42:14;101086.28;;;8.85;100.00
12209;BME280;6167;43.080;25.634;2022-12-18T08:44:58;101075.91;;;9.31;100.00
12209;BME280;6167;43.080;25.634;2022-12-18T08:47:25;101071.88;;;9.07;100.00
12209;BME280;6167;43.080;25.634;2022-12-18T08:49:57;101062.34;;;8.97;100.00
12209;BME280;6167;43.080;25.634;2022-12-18T08:52:25;101077.69;;;8.71;100.00
12209;BME280;6167;43.080;25.634;2022-12-18T08:54:53;101061.75;;;8.77;100.00
12209;BME280;6167;43.080;25.634;2022-12-18T08:57:20;101065.53;;;8.57;100.00
12209;BME280;6167;43.080;25.634;2022-12-18T08:59:48;101079.59;;;8.59;100.00
12209;BME280;6167;43.080;25.634;2022-12-18T09:02:20;101072.56;;;8.58;100.00
12209;BME280;6167;43.080;25.634;2022-12-18T09:04:47;101075.06;;;8.69;100.00
12209;BME280;6167;43.080;25.634;2022-12-18T09:07:23;101070.19;;;8.39;100.00
12209;BME280;6167;43.080;25.634;2022-12-18T09:10:00;101057.25;;;8.16;100.00
12209;BME280;6167;43.080;25.634;2022-12-18T09:12:30;101077.81;;;8.60;100.00
12209;BME280;6167;43.080;25.634;2022-12-18T09:14:57;101064.72;;;8.54;100.00
12209;BME280;6167;43.080;25.634;2022-12-18T09:17:25;101076.19;;;8.51;100.00
12209;BME280;6167;43.080;25.634;2022-12-18T09:19:54;101056.34;;;8.17;100.00
12209;BME280;6167;43.080;25.634;2022-12-18T09:22:22;101076.16;;;8.53;100.00
12209;BME280;6167;43.080;25.634;2022-12-18T09:24:49;101047.47;;;8.25;100.00
12209;BME280;6167;43.080;25.634;2022-12-18T09:27:46;101063.94;;;8.46;100.00
12209;BME280;6167;43.080;25.634;2022-12-18T09:30:18;101055.44;;;8.90;100.00
12209;BME280;6167;43.080;25.634;2022-12-18T09:32:45;101037.94;;;9.89;100.00
12209;BME280;6167;43.080;25.634;2022-12-18T09:35:12;101072.81;;;9.05;100.00
12209;BME280;6167;43.080;25.634;2022-12-18T09:37:42;101076.75;;;8.73;100.00
12209;BME280;6167;43.080;25.634;2022-12-18T09:40:13;101076.81;;;8.72;100.00
12209;BME280;6167;43.080;25.634;2022-12-18T09:42:40;101071.44;;;8.76;100.00
12209;BME280;6167;43.080;25.634;2022-12-18T09:45:13;101073.41;;;8.60;100.00
12209;BME280;6167;43.080;25.634;2022-12-18T09:47:42;101084.72;;;8.70;100.00
12209;BME280;6167;43.080;25.634;2022-12-18T09:50:22;101072.34;;;8.74;100.00
12209;BME280;6167;43.080;25.634;2022-12-18T09:52:54;101068.91;;;8.70;100.00
12209;BME280;6167;43.080;25.634;2022-12-18T09:55:25;101072.69;;;8.51;100.00
12209;BME280;6167;43.080;25.634;2022-12-18T09:58:04;101087.41;;;8.67;100.00
12209;BME280;6167;43.080;25.634;2022-12-18T10:00:33;101084.81;;;8.64;100.00
12209;BME280;6167;43.080;25.634;2022-12-18T10:03:02;101076.03;;;8.64;100.00
12209;BME280;6167;43.080;25.634;2022-12-18T10:05:37;101090.16;;;8.58;100.00
12209;BME280;6167;43.080;25.634;2022-12-18T10:08:13;101077.59;;;8.77;100.00
12209;BME280;6167;43.080;25.634;2022-12-18T10:10:48;101070.63;;;8.73;100.00
12209;BME280;6167;43.080;25.634;2022-12-18T10:13:22;101074.22;;;8.67;100.00
12209;BME280;6167;43.080;25.634;2022-12-18T10:16:09;101084.34;;;8.96;100.00
12209;BME280;6167;43.080;25.634;2022-12-18T10:19:01;101077.78;;;9.23;100.00
12209;BME280;6167;43.080;25.634;2022-12-18T10:21:39;101081.56;;;9.07;100.00
12209;BME280;6167;43.080;25.634;2022-12-18T10:24:20;101078.03;;;9.09;100.00
12209;BME280;6167;43.080;25.634;2022-12-18T10:26:52;101076.22;;;9.13;100.00
12209;BME280;6167;43.080;25.634;2022-12-18T10:29:25;101071.94;;;9.04;100.00
12209;BME280;6167;43.080;25.634;2022-12-18T10:31:52;101057.03;;;9.00;100.00
12209;BME280;6167;43.080;25.634;2022-12-18T10:34:18;101069.88;;;9.23;100.00
12209;BME280;6167;43.080;25.634;2022-12-18T10:36:47;101066.09;;;9.39;100.00
12209;BME280;6167;43.080;25.634;2022-12-18T10:39:17;101062.84;;;9.22;100.00
12209;BME280;6167;43.080;25.634;2022-12-18T10:41:45;101063.84;;;9.15;100.00
12209;BME280;6167;43.080;25.634;2022-12-18T10:44:19;101074.28;;;9.22;100.00
12209;BME280;6167;43.080;25.634;2022-12-18T10:46:49;101080.47;;;9.21;100.00
12209;BME280;6167;43.080;25.634;2022-12-18T10:49:22;101066.81;;;8.93;100.00
12209;BME280;6167;43.080;25.634;2022-12-18T10:51:50;101075.03;;;9.30;100.00
12209;BME280;6167;43.080;25.634;2022-12-18T10:54:21;101069.69;;;9.35;100.00
12209;BME280;6167;43.080;25.634;2022-12-18T10:56:49;101072.34;;;9.35;100.00
12209;BME280;6167;43.080;25.634;2022-12-18T10:59:18;101071.13;;;9.54;100.00
12209;BME280;6167;43.080;25.634;2022-12-18T11:01:48;101055.75;;;9.27;100.00
12209;BME280;6167;43.080;25.634;2022-12-18T11:04:18;101079.38;;;9.35;100.00
12209;BME280;6167;43.080;25.634;2022-12-18T11:06:54;101083.94;;;9.25;100.00
12209;BME280;6167;43.080;25.634;2022-12-18T11:09:24;101089.41;;;9.11;100.00
12209;BME280;6167;43.080;25.634;2022-12-18T11:11:51;101079.38;;;9.35;100.00
12209;BME280;6167;43.080;25.634;2022-12-18T11:14:22;101093.53;;;9.29;100.00
12209;BME280;6167;43.080;25.634;2022-12-18T11:16:50;101084.84;;;9.22;100.00
12209;BME280;6167;43.080;25.634;2022-12-18T11:19:34;101087.25;;;9.36;100.00
12209;BME280;6167;43.080;25.634;2022-12-18T11:22:18;101100.03;;;9.07;100.00
12209;BME280;6167;43.080;25.634;2022-12-18T11:24:53;101083.91;;;9.26;100.00
12209;BME280;6167;43.080;25.634;2022-12-18T11:27:20;101087.81;;;9.56;100.00
12209;BME280;6167;43.080;25.634;2022-12-18T11:29:49;101096.81;;;9.43;100.00
12209;BME280;6167;43.080;25.634;2022-12-18T11:32:29;101086.97;;;9.56;100.00
12209;BME280;6167;43.080;25.634;2022-12-18T11:35:03;101071.84;;;9.64;100.00
12209;BME280;6167;43.080;25.634;2022-12-18T11:37:31;101092.41;;;9.45;100.00
12209;BME280;6167;43.080;25.634;2022-12-18T11:40:06;101107.69;;;9.25;100.00
12209;BME280;6167;43.080;25.634;2022-12-18T11:42:41;101098.63;;;9.41;100.00
12209;BME280;6167;43.080;25.634;2022-12-18T11:45:29;101091.91;;;9.20;100.00
12209;BME280;6167;43.080;25.634;2022-12-18T11:48:02;101093.81;;;9.12;100.00
12209;BME280;6167;43.080;25.634;2022-12-18T11:50:41;101080.38;;;9.27;100.00
12209;BME280;6167;43.080;25.634;2022-12-18T11:53:11;101085.59;;;9.32;100.00
12209;BME280;6167;43.080;25.634;2022-12-18T11:55:51;101093.91;;;9.05;100.00
12209;BME280;6167;43.080;25.634;2022-12-18T11:58:32;101102.03;;;8.91;100.00
12209;BME280;6167;43.080;25.634;2022-12-18T12:01:27;101101.81;;;9.05;100.00
12209;BME280;6167;43.080;25.634;2022-12-18T12:04:15;101109.81;;;8.99;100.00
12209;BME280;6167;43.080;25.634;2022-12-18T12:06:53;101108.75;;;8.47;100.00
12209;BME280;6167;43.080;25.634;2022-12-18T12:09:30;101112.25;;;8.49;100.00
12209;BME280;6167;43.080;25.634;2022-12-18T12:12:17;101113.81;;;8.63;100.00
12209;BME280;6167;43.080;25.634;2022-12-18T12:14:57;101114.19;;;8.31;100.00
12209;BME280;6167;43.080;25.634;2022-12-18T12:17:36;101110.69;;;8.30;100.00
12209;BME280;6167;43.080;25.634;2022-12-18T12:20:10;101109.75;;;8.34;100.00
12209;BME280;6167;43.080;25.634;2022-12-18T12:22:49;101114.31;;;8.18;100.00
12209;BME280;6167;43.080;25.634;2022-12-18T12:25:28;101118.53;;;8.35;100.00
12209;BME280;6167;43.080;25.634;2022-12-18T12:28:15;101120.88;;;8.62;100.00
12209;BME280;6167;43.080;25.634;2022-12-18T12:30:54;101120.22;;;8.42;100.00
12209;BME280;6167;43.080;25.634;2022-12-18T12:33:37;101124.53;;;8.52;100.00
12209;BME280;6167;43.080;25.634;2022-12-18T12:36:13;101119.19;;;8.53;100.00
12209;BME280;6167;43.080;25.634;2022-12-18T12:38:49;101114.91;;;8.48;100.00
12209;BME280;6167;43.080;25.634;2022-12-18T12:41:22;101119.53;;;8.23;100.00
12209;BME280;6167;43.080;25.634;2022-12-18T12:44:19;101103.94;;;8.03;100.00
12209;BME280;6167;43.080;25.634;2022-12-18T12:46:50;101124.13;;;8.03;100.00
12209;BME280;6167;43.080;25.634;2022-12-18T12:49:27;101116.44;;;7.81;100.00
12209;BME280;6167;43.080;25.634;2022-12-18T12:51:59;101130.63;;;7.65;100.00
12209;BME280;6167;43.080;25.634;2022-12-18T12:54:28;101133.25;;;7.68;100.00
12209;BME280;6167;43.080;25.634;2022-12-18T12:56:58;101138.56;;;7.61;100.00
12209;BME280;6167;43.080;25.634;2022-12-18T12:59:34;101147.41;;;7.49;100.00
12209;BME280;6167;43.080;25.634;2022-12-18T13:02:13;101150.03;;;7.49;100.00
12209;BME280;6167;43.080;25.634;2022-12-18T13:04:50;101152.63;;;7.58;100.00
12209;BME280;6167;43.080;25.634;2022-12-18T13:07:26;101159.47;;;7.80;100.00
12209;BME280;6167;43.080;25.634;2022-12-18T13:10:14;101165.72;;;7.69;100.00
12209;BME280;6167;43.080;25.634;2022-12-18T13:12:53;101174.47;;;7.69;100.00